Time,TemperatureF,DewpointF,PressureIn,WindDirection,WindDirectionDegrees,WindSpeedMPH,WindSpeedGustMPH,Humidity,HourlyPrecipIn,Conditions,Clouds,dailyrainin,SoftwareType,DateUTC
2013-04-04 00:00:00,36.2,18.4,30.16,NW,315,5.0,7.0,48,0.00,,,0.00,LWC V2.10 B1702,2013-04-04 04:00:00,
2013-04-04 00:01:00,36.2,18.4,30.16,West,279,11.0,11.0,48,0.00,,,0.00,LWC V2.10 B1702,2013-04-04 04:01:00,
2013-04-04 00:04:00,36.1,17.8,30.16,NW,310,6.0,7.0,47,0.00,,,0.00,LWC V2.10 B1702,2013-04-04 04:04:00,
2013-04-04 00:09:00,36.1,18.3,30.16,North,351,9.0,11.0,48,0.00,,,0.00,LWC V2.10 B1702,2013-04-04 04:09:00,
2013-04-04 00:14:00,36.1,18.3,30.17,WNW,299,8.0,10.0,48,0.00,,,0.00,LWC V2.10 B1702,2013-04-04 04:14:00,
2013-04-04 00:19:00,36.0,17.7,30.17,NNW,327,3.0,5.0,47,0.00,,,0.00,LWC V2.10 B1702,2013-04-04 04:19:00,
2013-04-04 00:24:00,35.9,18.1,30.17,West,271,2.0,9.0,48,0.00,,,0.00,LWC V2.10 B1702,2013-04-04 04:24:00,
2013-04-04 00:29:00,35.7,18.4,30.18,NW,304,3.0,9.0,49,0.00,,,0.00,LWC V2.10 B1702,2013-04-04 04:29:00,
2013-04-04 00:34:00,35.6,18.3,30.18,NNW,348,3.0,7.0,49,0.00,,,0.00,LWC V2.10 B1702,2013-04-04 04:34:00,
2013-04-04 00:39:00,35.5,17.8,30.18,NW,312,8.0,10.0,48,0.00,,,0.00,LWC V2.10 B1702,2013-04-04 04:39:00,
2013-04-04 00:44:00,35.5,18.3,30.18,NNW,329,8.0,10.0,49,0.00,,,0.00,LWC V2.10 B1702,2013-04-04 04:44:00,
2013-04-04 00:49:00,35.4,18.2,30.19,NW,319,3.0,9.0,49,0.00,,,0.00,LWC V2.10 B1702,2013-04-04 04:49:00,
2013-04-04 00:54:00,35.3,18.5,30.19,WNW,288,1.0,8.0,50,0.00,,,0.00,LWC V2.10 B1702,2013-04-04 04:54:00,
2013-04-04 00:59:00,35.3,18.1,30.19,NNW,344,8.0,8.0,49,0.00,,,0.00,LWC V2.10 B1702,2013-04-04 04:59:00,
2013-04-04 01:04:00,35.2,18.0,30.19,NW,319,3.0,10.0,49,0.00,,,0.00,LWC V2.10 B1702,2013-04-04 05:04:00,
2013-04-04 01:09:00,35.2,18.4,30.19,NNW,337,3.0,7.0,50,0.00,,,0.00,LWC V2.10 B1702,2013-04-04 05:09:00,
2013-04-04 01:14:00,35.1,19.3,30.19,NW,311,6.0,6.0,52,0.00,,,0.00,LWC V2.10 B1702,2013-04-04 05:14:00,
2013-04-04 01:19:00,35.1,18.8,30.19,North,349,7.0,8.0,51,0.00,,,0.00,LWC V2.10 B1702,2013-04-04 05:19:00,
2013-04-04 01:24:00,35.0,18.3,30.19,NNW,338,5.0,11.0,50,0.00,,,0.00,LWC V2.10 B1702,2013-04-04 05:24:00,
2013-04-04 01:29:00,35.0,19.2,30.19,NW,324,4.0,8.0,52,0.00,,,0.00,LWC V2.10 B1702,2013-04-04 05:29:00,
2013-04-04 01:34:00,34.9,19.1,30.18,WNW,293,4.0,9.0,52,0.00,,,0.00,LWC V2.10 B1702,2013-04-04 05:34:00,
2013-04-04 01:39:00,34.9,18.6,30.18,NW,321,2.0,4.0,51,0.00,,,0.00,LWC V2.10 B1702,2013-04-04 05:39:00,
2013-04-04 01:44:00,34.8,19.0,30.18,NW,311,3.0,9.0,52,0.00,,,0.00,LWC V2.10 B1702,2013-04-04 05:44:00,
2013-04-04 01:49:00,34.7,19.8,30.18,NNW,332,6.0,7.0,54,0.00,,,0.00,LWC V2.10 B1702,2013-04-04 05:49:00,
2013-04-04 01:54:00,34.6,18.8,30.18,NNW,329,4.0,6.0,52,0.00,,,0.00,LWC V2.10 B1702,2013-04-04 05:54:00,
2013-04-04 01:59:00,34.6,19.7,30.18,WNW,300,3.0,5.0,54,0.00,,,0.00,LWC V2.10 B1702,2013-04-04 05:59:00,
2013-04-04 02:04:00,34.6,19.2,30.18,NW,314,4.0,5.0,53,0.00,,,0.00,LWC V2.10 B1702,2013-04-04 06:04:00,
2013-04-04 02:09:00,34.6,19.2,30.18,NW,304,3.0,7.0,53,0.00,,,0.00,LWC V2.10 B1702,2013-04-04 06:09:00,
2013-04-04 02:14:00,34.5,19.6,30.18,NW,319,4.0,7.0,54,0.00,,,0.00,LWC V2.10 B1702,2013-04-04 06:14:00,
2013-04-04 02:19:00,34.4,19.5,30.18,North,355,4.0,8.0,54,0.00,,,0.00,LWC V2.10 B1702,2013-04-04 06:19:00,
2013-04-04 02:24:00,34.4,19.5,30.18,WNW,298,4.0,6.0,54,0.00,,,0.00,LWC V2.10 B1702,2013-04-04 06:24:00,
2013-04-04 02:29:00,34.3,19.4,30.19,NNW,346,5.0,10.0,54,0.00,,,0.00,LWC V2.10 B1702,2013-04-04 06:29:00,
2013-04-04 02:34:00,34.3,19.4,30.18,NNW,331,2.0,15.0,54,0.00,,,0.00,LWC V2.10 B1702,2013-04-04 06:34:00,
2013-04-04 02:39:00,34.3,19.4,30.18,NNW,343,8.0,8.0,54,0.00,,,0.00,LWC V2.10 B1702,2013-04-04 06:39:00,
2013-04-04 02:44:00,34.3,19.8,30.18,NNW,342,1.0,7.0,55,0.00,,,0.00,LWC V2.10 B1702,2013-04-04 06:44:00,
2013-04-04 02:49:00,34.2,19.7,30.18,NW,306,5.0,10.0,55,0.00,,,0.00,LWC V2.10 B1702,2013-04-04 06:49:00,
2013-04-04 02:54:00,34.2,19.7,30.18,NNW,342,8.0,10.0,55,0.00,,,0.00,LWC V2.10 B1702,2013-04-04 06:54:00,
2013-04-04 02:59:00,34.2,20.2,30.18,WNW,302,7.0,8.0,56,0.00,,,0.00,LWC V2.10 B1702,2013-04-04 06:59:00,
2013-04-04 03:04:00,34.1,20.1,30.18,NNW,343,7.0,10.0,56,0.00,,,0.00,LWC V2.10 B1702,2013-04-04 07:04:00,
2013-04-04 03:09:00,34.1,19.2,30.17,NNW,342,7.0,12.0,54,0.00,,,0.00,LWC V2.10 B1702,2013-04-04 07:09:00,
2013-04-04 03:14:00,34.1,20.5,30.17,NW,308,5.0,5.0,57,0.00,,,0.00,LWC V2.10 B1702,2013-04-04 07:14:00,
2013-04-04 03:19:00,34.0,19.6,30.17,NNW,329,3.0,11.0,55,0.00,,,0.00,LWC V2.10 B1702,2013-04-04 07:19:00,
2013-04-04 03:24:00,33.9,20.3,30.18,North,355,1.0,4.0,57,0.00,,,0.00,LWC V2.10 B1702,2013-04-04 07:24:00,
2013-04-04 03:29:00,33.8,20.2,30.18,NNW,343,2.0,5.0,57,0.00,,,0.00,LWC V2.10 B1702,2013-04-04 07:29:00,
2013-04-04 03:34:00,33.8,20.2,30.18,ENE,62,2.0,8.0,57,0.00,,,0.00,LWC V2.10 B1702,2013-04-04 07:34:00,
2013-04-04 03:39:00,33.7,20.1,30.18,WNW,303,9.0,9.0,57,0.00,,,0.00,LWC V2.10 B1702,2013-04-04 07:39:00,
2013-04-04 03:44:00,33.8,20.2,30.18,NNW,345,3.0,5.0,57,0.00,,,0.00,LWC V2.10 B1702,2013-04-04 07:44:00,
2013-04-04 03:49:00,33.8,19.8,30.18,SW,233,3.0,10.0,56,0.00,,,0.00,LWC V2.10 B1702,2013-04-04 07:49:00,
2013-04-04 03:54:00,33.8,19.8,30.18,NW,312,2.0,6.0,56,0.00,,,0.00,LWC V2.10 B1702,2013-04-04 07:54:00,
2013-04-04 03:59:00,33.8,20.2,30.19,NNW,344,8.0,10.0,57,0.00,,,0.00,LWC V2.10 B1702,2013-04-04 07:59:00,
2013-04-04 04:04:00,33.8,19.8,30.19,North,0,3.0,7.0,56,0.00,,,0.00,LWC V2.10 B1702,2013-04-04 08:04:00,
2013-04-04 04:09:00,33.8,20.2,30.19,North,355,5.0,6.0,57,0.00,,,0.00,LWC V2.10 B1702,2013-04-04 08:09:00,
2013-04-04 04:14:00,33.8,20.6,30.19,NW,323,5.0,6.0,58,0.00,,,0.00,LWC V2.10 B1702,2013-04-04 08:14:00,
2013-04-04 04:19:00,33.7,20.1,30.18,NNE,13,2.0,6.0,57,0.00,,,0.00,LWC V2.10 B1702,2013-04-04 08:19:00,
2013-04-04 04:24:00,33.7,19.7,30.18,WNW,282,2.0,6.0,56,0.00,,,0.00,LWC V2.10 B1702,2013-04-04 08:24:00,
2013-04-04 04:29:00,33.5,19.9,30.18,NE,39,0.0,4.0,57,0.00,,,0.00,LWC V2.10 B1702,2013-04-04 08:29:00,
2013-04-04 04:34:00,33.5,19.5,30.18,NNW,340,2.0,6.0,56,0.00,,,0.00,LWC V2.10 B1702,2013-04-04 08:34:00,
2013-04-04 04:39:00,33.5,19.5,30.18,NNE,12,0.0,8.0,56,0.00,,,0.00,LWC V2.10 B1702,2013-04-04 08:39:00,
2013-04-04 04:44:00,33.4,19.8,30.18,NNW,327,2.0,9.0,57,0.00,,,0.00,LWC V2.10 B1702,2013-04-04 08:44:00,
2013-04-04 04:49:00,33.4,20.2,30.19,West,277,3.0,8.0,58,0.00,,,0.00,LWC V2.10 B1702,2013-04-04 08:49:00,
2013-04-04 04:54:00,33.4,19.8,30.19,NE,45,0.0,7.0,57,0.00,,,0.00,LWC V2.10 B1702,2013-04-04 08:54:00,
2013-04-04 04:59:00,33.4,20.2,30.19,ENE,59,3.0,5.0,58,0.00,,,0.00,LWC V2.10 B1702,2013-04-04 08:59:00,
2013-04-04 05:04:00,33.3,20.1,30.20,NW,325,3.0,5.0,58,0.00,,,0.00,LWC V2.10 B1702,2013-04-04 09:04:00,
2013-04-04 05:09:00,33.2,20.4,30.20,North,355,4.0,9.0,59,0.00,,,0.00,LWC V2.10 B1702,2013-04-04 09:09:00,
2013-04-04 05:14:00,33.2,19.6,30.21,WNW,303,4.0,6.0,57,0.00,,,0.00,LWC V2.10 B1702,2013-04-04 09:14:00,
2013-04-04 05:19:00,33.2,20.4,30.21,NNW,327,2.0,3.0,59,0.00,,,0.00,LWC V2.10 B1702,2013-04-04 09:19:00,
2013-04-04 05:24:00,33.2,20.0,30.21,NNW,342,5.0,5.0,58,0.00,,,0.00,LWC V2.10 B1702,2013-04-04 09:24:00,
2013-04-04 05:29:00,33.2,20.0,30.22,NNE,30,2.0,6.0,58,0.00,,,0.00,LWC V2.10 B1702,2013-04-04 09:29:00,
2013-04-04 05:34:00,33.2,20.4,30.23,NNW,333,5.0,5.0,59,0.00,,,0.00,LWC V2.10 B1702,2013-04-04 09:34:00,
2013-04-04 05:39:00,33.2,20.8,30.24,North,5,6.0,6.0,60,0.00,,,0.00,LWC V2.10 B1702,2013-04-04 09:39:00,
2013-04-04 05:44:00,33.1,20.0,30.24,NW,323,0.0,3.0,58,0.00,,,0.00,LWC V2.10 B1702,2013-04-04 09:44:00,
2013-04-04 05:49:00,33.1,21.1,30.24,NNW,339,3.0,6.0,61,0.00,,,0.00,LWC V2.10 B1702,2013-04-04 09:49:00,
2013-04-04 05:54:00,33.0,21.0,30.25,NNW,330,2.0,5.0,61,0.00,,,0.00,LWC V2.10 B1702,2013-04-04 09:54:00,
2013-04-04 05:59:00,33.0,21.0,30.25,WNW,300,1.0,8.0,61,0.00,,,0.00,LWC V2.10 B1702,2013-04-04 09:59:00,
2013-04-04 06:04:00,32.9,20.9,30.25,NW,323,5.0,6.0,61,0.00,,,0.00,LWC V2.10 B1702,2013-04-04 10:04:00,
2013-04-04 06:09:00,32.9,20.9,30.25,WNW,302,0.0,4.0,61,0.00,,,0.00,LWC V2.10 B1702,2013-04-04 10:09:00,
2013-04-04 06:14:00,32.9,20.9,30.25,WNW,282,2.0,3.0,61,0.00,,,0.00,LWC V2.10 B1702,2013-04-04 10:14:00,
2013-04-04 06:19:00,32.8,20.9,30.26,NW,308,4.0,5.0,61,0.00,,,0.00,LWC V2.10 B1702,2013-04-04 10:19:00,
2013-04-04 06:24:00,32.7,20.4,30.27,NNW,340,8.0,8.0,60,0.00,,,0.00,LWC V2.10 B1702,2013-04-04 10:24:00,
2013-04-04 06:29:00,32.6,20.3,30.27,WNW,293,2.0,4.0,60,0.00,,,0.00,LWC V2.10 B1702,2013-04-04 10:29:00,
2013-04-04 06:34:00,32.6,20.3,30.27,NNW,338,7.0,8.0,60,0.00,,,0.00,LWC V2.10 B1702,2013-04-04 10:34:00,
2013-04-04 06:39:00,32.7,20.4,30.28,WNW,303,1.0,4.0,60,0.00,,,0.00,LWC V2.10 B1702,2013-04-04 10:39:00,
2013-04-04 06:44:00,32.9,20.9,30.28,WNW,292,4.0,10.0,61,0.00,,,0.00,LWC V2.10 B1702,2013-04-04 10:44:00,
2013-04-04 06:49:00,32.9,20.9,30.28,NW,315,3.0,4.0,61,0.00,,,0.00,LWC V2.10 B1702,2013-04-04 10:49:00,
2013-04-04 06:54:00,33.0,21.0,30.28,WNW,300,9.0,9.0,61,0.00,,,0.00,LWC V2.10 B1702,2013-04-04 10:54:00,
2013-04-04 06:59:00,33.1,20.7,30.29,NNW,327,3.0,8.0,60,0.00,,,0.00,LWC V2.10 B1702,2013-04-04 10:59:00,
2013-04-04 07:04:00,33.2,21.2,30.29,NW,319,2.0,5.0,61,0.00,,,0.00,LWC V2.10 B1702,2013-04-04 11:04:00,
2013-04-04 07:09:00,33.3,20.9,30.29,WNW,292,5.0,6.0,60,0.00,,,0.00,LWC V2.10 B1702,2013-04-04 11:09:00,
2013-04-04 07:14:00,33.5,21.5,30.30,NW,319,6.0,8.0,61,0.00,,,0.00,LWC V2.10 B1702,2013-04-04 11:14:00,
2013-04-04 07:19:00,33.6,21.2,30.30,NW,324,3.0,5.0,60,0.00,,,0.00,LWC V2.10 B1702,2013-04-04 11:19:00,
2013-04-04 07:24:00,33.8,21.8,30.30,WNW,296,7.0,10.0,61,0.00,,,0.00,LWC V2.10 B1702,2013-04-04 11:24:00,
2013-04-04 07:29:00,33.9,21.9,30.30,WNW,284,3.0,8.0,61,0.00,,,0.00,LWC V2.10 B1702,2013-04-04 11:29:00,
2013-04-04 07:34:00,34.1,21.7,30.30,NNW,336,9.0,9.0,60,0.00,,,0.00,LWC V2.10 B1702,2013-04-04 11:34:00,
2013-04-04 07:39:00,34.3,21.9,30.30,NW,309,9.0,9.0,60,0.00,,,0.00,LWC V2.10 B1702,2013-04-04 11:39:00,
2013-04-04 07:44:00,34.5,22.1,30.30,WNW,288,3.0,6.0,60,0.00,,,0.00,LWC V2.10 B1702,2013-04-04 11:44:00,
2013-04-04 07:49:00,34.8,22.0,30.30,North,349,2.0,6.0,59,0.00,,,0.00,LWC V2.10 B1702,2013-04-04 11:49:00,
2013-04-04 07:54:00,35.0,21.7,30.30,NNW,333,2.0,4.0,58,0.00,,,0.00,LWC V2.10 B1702,2013-04-04 11:54:00,
2013-04-04 07:59:00,35.2,21.5,30.29,NNW,331,4.0,4.0,57,0.00,,,0.00,LWC V2.10 B1702,2013-04-04 11:59:00,
2013-04-04 08:04:00,35.4,21.7,30.30,NNW,339,5.0,6.0,57,0.00,,,0.00,LWC V2.10 B1702,2013-04-04 12:04:00,
2013-04-04 08:09:00,35.7,22.0,30.31,WNW,298,8.0,8.0,57,0.00,,,0.00,LWC V2.10 B1702,2013-04-04 12:09:00,
2013-04-04 08:14:00,35.9,21.8,30.31,NW,309,2.0,4.0,56,0.00,,,0.00,LWC V2.10 B1702,2013-04-04 12:14:00,
2013-04-04 08:19:00,36.2,21.6,30.31,NW,313,3.0,8.0,55,0.00,,,0.00,LWC V2.10 B1702,2013-04-04 12:19:00,
2013-04-04 08:24:00,36.4,21.8,30.31,NW,309,9.0,9.0,55,0.00,,,0.00,LWC V2.10 B1702,2013-04-04 12:24:00,
2013-04-04 08:29:00,36.5,21.5,30.31,WNW,303,6.0,9.0,54,0.00,,,0.00,LWC V2.10 B1702,2013-04-04 12:29:00,
2013-04-04 08:34:00,36.8,21.7,30.31,NNW,338,4.0,8.0,54,0.00,,,0.00,LWC V2.10 B1702,2013-04-04 12:34:00,
2013-04-04 08:39:00,37.0,21.9,30.31,NNW,332,3.0,4.0,54,0.00,,,0.00,LWC V2.10 B1702,2013-04-04 12:39:00,
2013-04-04 08:44:00,37.3,21.8,30.31,WNW,287,3.0,4.0,53,0.00,,,0.00,LWC V2.10 B1702,2013-04-04 12:44:00,
2013-04-04 08:49:00,37.6,21.6,30.31,North,355,2.0,6.0,52,0.00,,,0.00,LWC V2.10 B1702,2013-04-04 12:49:00,
2013-04-04 08:54:00,37.9,22.3,30.31,WNW,294,4.0,5.0,53,0.00,,,0.00,LWC V2.10 B1702,2013-04-04 12:54:00,
2013-04-04 08:59:00,38.1,21.6,30.31,West,279,5.0,7.0,51,0.00,,,0.00,LWC V2.10 B1702,2013-04-04 12:59:00,
2013-04-04 09:04:00,38.1,21.1,30.31,West,273,2.0,5.0,50,0.00,,,0.00,LWC V2.10 B1702,2013-04-04 13:04:00,
2013-04-04 09:09:00,38.4,21.9,30.31,West,280,4.0,5.0,51,0.00,,,0.00,LWC V2.10 B1702,2013-04-04 13:09:00,
2013-04-04 09:14:00,38.7,21.7,30.31,NW,304,2.0,9.0,50,0.00,,,0.00,LWC V2.10 B1702,2013-04-04 13:14:00,
2013-04-04 09:19:00,39.0,22.0,30.31,NW,319,4.0,6.0,50,0.00,,,0.00,LWC V2.10 B1702,2013-04-04 13:19:00,
2013-04-04 09:24:00,39.1,22.0,30.31,West,280,3.0,6.0,50,0.00,,,0.00,LWC V2.10 B1702,2013-04-04 13:24:00,
2013-04-04 09:29:00,39.5,21.5,30.31,WNW,290,4.0,7.0,48,0.00,,,0.00,LWC V2.10 B1702,2013-04-04 13:29:00,
2013-04-04 09:34:00,39.8,21.7,30.31,WSW,253,3.0,5.0,48,0.00,,,0.00,LWC V2.10 B1702,2013-04-04 13:34:00,
2013-04-04 09:39:00,40.4,21.8,30.31,NNW,331,3.0,4.0,47,0.00,,,0.00,LWC V2.10 B1702,2013-04-04 13:39:00,
2013-04-04 09:44:00,41.1,21.9,30.31,NW,313,3.0,6.0,46,0.00,,,0.00,LWC V2.10 B1702,2013-04-04 13:44:00,
2013-04-04 09:49:00,41.4,21.7,30.31,West,263,0.0,7.0,45,0.00,,,0.00,LWC V2.10 B1702,2013-04-04 13:49:00,
2013-04-04 09:54:00,41.7,21.4,30.31,West,275,6.0,6.0,44,0.00,,,0.00,LWC V2.10 B1702,2013-04-04 13:54:00,
2013-04-04 09:59:00,42.0,21.7,30.31,West,269,4.0,4.0,44,0.00,,,0.00,LWC V2.10 B1702,2013-04-04 13:59:00,
2013-04-04 10:04:00,42.4,21.5,30.30,WNW,284,3.0,5.0,43,0.00,,,0.00,LWC V2.10 B1702,2013-04-04 14:04:00,
2013-04-04 10:09:00,42.5,22.7,30.30,WNW,303,2.0,4.0,45,0.00,,,0.00,LWC V2.10 B1702,2013-04-04 14:09:00,
2013-04-04 10:14:00,42.7,22.3,30.30,SW,227,2.0,9.0,44,0.00,,,0.00,LWC V2.10 B1702,2013-04-04 14:14:00,
2013-04-04 10:19:00,43.1,24.3,30.30,NNW,346,5.0,5.0,47,0.00,,,0.00,LWC V2.10 B1702,2013-04-04 14:19:00,
2013-04-04 10:24:00,43.3,22.3,30.30,WNW,298,5.0,6.0,43,0.00,,,0.00,LWC V2.10 B1702,2013-04-04 14:24:00,
2013-04-04 10:29:00,43.0,22.6,30.30,WNW,291,5.0,8.0,44,0.00,,,0.00,LWC V2.10 B1702,2013-04-04 14:29:00,
2013-04-04 10:34:00,43.0,22.1,30.30,West,280,2.0,6.0,43,0.00,,,0.00,LWC V2.10 B1702,2013-04-04 14:34:00,
2013-04-04 10:39:00,43.3,22.3,30.29,NW,313,3.0,6.0,43,0.00,,,0.00,LWC V2.10 B1702,2013-04-04 14:39:00,
2013-04-04 10:44:00,42.9,22.0,30.29,NW,310,6.0,7.0,43,0.00,,,0.00,LWC V2.10 B1702,2013-04-04 14:44:00,
2013-04-04 10:49:00,42.7,22.3,30.28,NW,304,4.0,5.0,44,0.00,,,0.00,LWC V2.10 B1702,2013-04-04 14:49:00,
2013-04-04 10:54:00,42.9,21.4,30.29,WSW,254,4.0,9.0,42,0.00,,,0.00,LWC V2.10 B1702,2013-04-04 14:54:00,
2013-04-04 10:59:00,43.1,23.2,30.28,West,274,6.0,6.0,45,0.00,,,0.00,LWC V2.10 B1702,2013-04-04 14:59:00,
2013-04-04 11:04:00,43.2,21.7,30.28,WSW,256,3.0,7.0,42,0.00,,,0.00,LWC V2.10 B1702,2013-04-04 15:04:00,
2013-04-04 11:09:00,43.4,22.4,30.28,NW,310,3.0,3.0,43,0.00,,,0.00,LWC V2.10 B1702,2013-04-04 15:09:00,
2013-04-04 11:14:00,43.9,23.4,30.28,WSW,248,4.0,5.0,44,0.00,,,0.00,LWC V2.10 B1702,2013-04-04 15:14:00,
2013-04-04 11:19:00,44.1,23.0,30.28,West,267,5.0,7.0,43,0.00,,,0.00,LWC V2.10 B1702,2013-04-04 15:19:00,
2013-04-04 11:24:00,44.7,24.1,30.28,SW,225,4.0,5.0,44,0.00,,,0.00,LWC V2.10 B1702,2013-04-04 15:24:00,
2013-04-04 11:29:00,45.0,23.9,30.28,WNW,286,0.0,5.0,43,0.00,,,0.00,LWC V2.10 B1702,2013-04-04 15:29:00,
2013-04-04 11:34:00,45.2,24.6,30.28,West,271,1.0,6.0,44,0.00,,,0.00,LWC V2.10 B1702,2013-04-04 15:34:00,
2013-04-04 11:39:00,45.3,24.7,30.27,West,265,4.0,7.0,44,0.00,,,0.00,LWC V2.10 B1702,2013-04-04 15:39:00,
2013-04-04 11:44:00,45.8,24.6,30.27,SW,218,6.0,8.0,43,0.00,,,0.00,LWC V2.10 B1702,2013-04-04 15:44:00,
2013-04-04 11:49:00,45.4,24.8,30.27,SW,223,8.0,9.0,44,0.00,,,0.00,LWC V2.10 B1702,2013-04-04 15:49:00,
2013-04-04 11:54:00,45.1,26.6,30.27,SSW,201,2.0,5.0,48,0.00,,,0.00,LWC V2.10 B1702,2013-04-04 15:54:00,
2013-04-04 11:59:00,45.1,25.6,30.27,WSW,251,8.0,9.0,46,0.00,,,0.00,LWC V2.10 B1702,2013-04-04 15:59:00,
2013-04-04 12:04:00,45.0,26.0,30.26,WSW,237,6.0,11.0,47,0.00,,,0.00,LWC V2.10 B1702,2013-04-04 16:04:00,
2013-04-04 12:09:00,45.2,25.7,30.26,WSW,256,4.0,7.0,46,0.00,,,0.00,LWC V2.10 B1702,2013-04-04 16:09:00,
2013-04-04 12:14:00,45.2,26.7,30.26,SW,222,7.0,13.0,48,0.00,,,0.00,LWC V2.10 B1702,2013-04-04 16:14:00,
2013-04-04 12:19:00,45.4,27.4,30.26,West,275,5.0,5.0,49,0.00,,,0.00,LWC V2.10 B1702,2013-04-04 16:19:00,
2013-04-04 12:24:00,45.6,26.0,30.27,West,261,4.0,11.0,46,0.00,,,0.00,LWC V2.10 B1702,2013-04-04 16:24:00,
2013-04-04 12:29:00,45.6,26.5,30.26,WSW,237,9.0,9.0,47,0.00,,,0.00,LWC V2.10 B1702,2013-04-04 16:29:00,
2013-04-04 12:34:00,45.4,26.9,30.26,SW,236,4.0,10.0,48,0.00,,,0.00,LWC V2.10 B1702,2013-04-04 16:34:00,
2013-04-04 12:39:00,45.4,26.9,30.26,SSW,202,7.0,8.0,48,0.00,,,0.00,LWC V2.10 B1702,2013-04-04 16:39:00,
2013-04-04 12:44:00,45.7,27.1,30.26,NNW,340,6.0,10.0,48,0.00,,,0.00,LWC V2.10 B1702,2013-04-04 16:44:00,
2013-04-04 12:49:00,45.8,26.7,30.25,WSW,250,6.0,10.0,47,0.00,,,0.00,LWC V2.10 B1702,2013-04-04 16:49:00,
2013-04-04 12:54:00,45.9,27.8,30.25,SW,221,3.0,5.0,49,0.00,,,0.00,LWC V2.10 B1702,2013-04-04 16:54:00,
2013-04-04 12:59:00,46.4,27.3,30.25,SSW,209,4.0,6.0,47,0.00,,,0.00,LWC V2.10 B1702,2013-04-04 16:59:00,
2013-04-04 13:04:00,46.5,26.8,30.25,SSW,213,7.0,8.0,46,0.00,,,0.00,LWC V2.10 B1702,2013-04-04 17:04:00,
2013-04-04 13:09:00,46.1,27.5,30.25,WNW,282,6.0,7.0,48,0.00,,,0.00,LWC V2.10 B1702,2013-04-04 17:09:00,
2013-04-04 13:14:00,46.4,25.7,30.26,WSW,240,5.0,12.0,44,0.00,,,0.00,LWC V2.10 B1702,2013-04-04 17:14:00,
2013-04-04 13:19:00,46.3,26.7,30.26,SW,236,7.0,11.0,46,0.00,,,0.00,LWC V2.10 B1702,2013-04-04 17:19:00,
2013-04-04 13:24:00,46.6,28.0,30.25,SW,221,7.0,9.0,48,0.00,,,0.00,LWC V2.10 B1702,2013-04-04 17:24:00,
2013-04-04 13:29:00,46.1,25.4,30.25,SW,223,5.0,10.0,44,0.00,,,0.00,LWC V2.10 B1702,2013-04-04 17:29:00,
2013-04-04 13:34:00,46.2,27.6,30.25,SW,223,4.0,11.0,48,0.00,,,0.00,LWC V2.10 B1702,2013-04-04 17:34:00,
2013-04-04 13:39:00,46.0,26.9,30.25,SW,231,5.0,14.0,47,0.00,,,0.00,LWC V2.10 B1702,2013-04-04 17:39:00,
2013-04-04 13:44:00,45.6,27.1,30.25,SSW,210,8.0,8.0,48,0.00,,,0.00,LWC V2.10 B1702,2013-04-04 17:44:00,
2013-04-04 13:49:00,45.8,29.2,30.25,WNW,284,2.0,10.0,52,0.00,,,0.00,LWC V2.10 B1702,2013-04-04 17:49:00,
2013-04-04 13:54:00,46.1,28.5,30.25,WSW,243,8.0,10.0,50,0.00,,,0.00,LWC V2.10 B1702,2013-04-04 17:54:00,
2013-04-04 13:59:00,46.0,28.4,30.25,West,259,8.0,14.0,50,0.00,,,0.00,LWC V2.10 B1702,2013-04-04 17:59:00,
2013-04-04 14:04:00,45.5,27.5,30.25,WSW,247,7.0,10.0,49,0.00,,,0.00,LWC V2.10 B1702,2013-04-04 18:04:00,
2013-04-04 14:09:00,45.4,27.4,30.24,WSW,241,7.0,13.0,49,0.00,,,0.00,LWC V2.10 B1702,2013-04-04 18:09:00,
2013-04-04 14:14:00,45.4,28.3,30.24,West,272,5.0,5.0,51,0.00,,,0.00,LWC V2.10 B1702,2013-04-04 18:14:00,
2013-04-04 14:19:00,46.2,29.1,30.23,WSW,246,3.0,10.0,51,0.00,,,0.00,LWC V2.10 B1702,2013-04-04 18:19:00,
2013-04-04 14:24:00,45.8,27.7,30.24,West,264,9.0,9.0,49,0.00,,,0.00,LWC V2.10 B1702,2013-04-04 18:24:00,
2013-04-04 14:29:00,45.8,29.2,30.24,WSW,254,7.0,10.0,52,0.00,,,0.00,LWC V2.10 B1702,2013-04-04 18:29:00,
2013-04-04 14:34:00,45.6,28.5,30.23,SW,231,6.0,10.0,51,0.00,,,0.00,LWC V2.10 B1702,2013-04-04 18:34:00,
2013-04-04 14:39:00,45.5,30.3,30.23,West,266,8.0,9.0,55,0.00,,,0.00,LWC V2.10 B1702,2013-04-04 18:39:00,
2013-04-04 14:44:00,45.7,27.6,30.23,WSW,257,5.0,10.0,49,0.00,,,0.00,LWC V2.10 B1702,2013-04-04 18:44:00,
2013-04-04 14:49:00,45.4,27.4,30.23,West,264,5.0,12.0,49,0.00,,,0.00,LWC V2.10 B1702,2013-04-04 18:49:00,
2013-04-04 14:54:00,45.7,28.6,30.22,SW,233,5.0,9.0,51,0.00,,,0.00,LWC V2.10 B1702,2013-04-04 18:54:00,
2013-04-04 14:59:00,46.1,28.0,30.22,West,277,8.0,12.0,49,0.00,,,0.00,LWC V2.10 B1702,2013-04-04 18:59:00,
2013-04-04 15:04:00,46.3,27.7,30.22,WSW,246,5.0,8.0,48,0.00,,,0.00,LWC V2.10 B1702,2013-04-04 19:04:00,
2013-04-04 15:09:00,46.7,26.5,30.22,SW,231,7.0,12.0,45,0.00,,,0.00,LWC V2.10 B1702,2013-04-04 19:09:00,
2013-04-04 15:14:00,46.7,27.6,30.21,SW,233,4.0,7.0,47,0.00,,,0.00,LWC V2.10 B1702,2013-04-04 19:14:00,
2013-04-04 15:19:00,47.1,28.9,30.21,WNW,302,4.0,7.0,49,0.00,,,0.00,LWC V2.10 B1702,2013-04-04 19:19:00,
2013-04-04 15:24:00,47.3,30.6,30.20,WNW,286,2.0,8.0,52,0.00,,,0.00,LWC V2.10 B1702,2013-04-04 19:24:00,
2013-04-04 15:29:00,47.4,30.2,30.21,West,281,4.0,10.0,51,0.00,,,0.00,LWC V2.10 B1702,2013-04-04 19:29:00,
2013-04-04 15:34:00,46.2,30.0,30.20,SW,233,5.0,10.0,53,0.00,,,0.00,LWC V2.10 B1702,2013-04-04 19:34:00,
2013-04-04 15:39:00,46.4,30.2,30.20,WSW,252,7.0,9.0,53,0.00,,,0.00,LWC V2.10 B1702,2013-04-04 19:39:00,
2013-04-04 15:44:00,46.3,30.6,30.20,West,274,5.0,7.0,54,0.00,,,0.00,LWC V2.10 B1702,2013-04-04 19:44:00,
2013-04-04 15:49:00,46.2,31.4,30.19,WSW,246,8.0,8.0,56,0.00,,,0.00,LWC V2.10 B1702,2013-04-04 19:49:00,
2013-04-04 15:54:00,46.2,31.8,30.19,SSW,213,6.0,8.0,57,0.00,,,0.00,LWC V2.10 B1702,2013-04-04 19:54:00,
2013-04-04 15:59:00,46.3,31.5,30.19,WSW,243,4.0,4.0,56,0.00,,,0.00,LWC V2.10 B1702,2013-04-04 19:59:00,
2013-04-04 16:04:00,46.4,32.0,30.19,WNW,298,4.0,8.0,57,0.00,,,0.00,LWC V2.10 B1702,2013-04-04 20:04:00,
2013-04-04 16:09:00,46.1,32.2,30.19,SSW,208,1.0,9.0,58,0.00,,,0.00,LWC V2.10 B1702,2013-04-04 20:09:00,
2013-04-04 16:14:00,46.1,32.6,30.19,West,265,3.0,7.0,59,0.00,,,0.00,LWC V2.10 B1702,2013-04-04 20:14:00,
2013-04-04 16:19:00,46.0,32.9,30.18,WSW,239,5.0,8.0,60,0.00,,,0.00,LWC V2.10 B1702,2013-04-04 20:19:00,
2013-04-04 16:24:00,45.8,32.3,30.18,SSW,203,5.0,10.0,59,0.00,,,0.00,LWC V2.10 B1702,2013-04-04 20:24:00,
2013-04-04 16:29:00,45.4,31.9,30.18,SW,236,9.0,12.0,59,0.00,,,0.00,LWC V2.10 B1702,2013-04-04 20:29:00,
2013-04-04 16:34:00,45.2,32.1,30.18,SW,236,5.0,12.0,60,0.00,,,0.00,LWC V2.10 B1702,2013-04-04 20:34:00,
2013-04-04 16:39:00,45.0,32.0,30.18,SSW,208,4.0,8.0,60,0.00,,,0.00,LWC V2.10 B1702,2013-04-04 20:39:00,
2013-04-04 16:44:00,44.6,32.4,30.18,West,267,14.0,14.0,62,0.00,,,0.00,LWC V2.10 B1702,2013-04-04 20:44:00,
2013-04-04 16:49:00,44.3,32.1,30.18,SW,234,6.0,11.0,62,0.00,,,0.00,LWC V2.10 B1702,2013-04-04 20:49:00,
2013-04-04 16:54:00,44.2,32.4,30.17,SW,229,5.0,12.0,63,0.00,,,0.00,LWC V2.10 B1702,2013-04-04 20:54:00,
2013-04-04 16:59:00,44.1,32.3,30.17,SSW,213,7.0,12.0,63,0.00,,,0.00,LWC V2.10 B1702,2013-04-04 20:59:00,
2013-04-04 17:04:00,44.0,32.2,30.17,SW,227,5.0,9.0,63,0.00,,,0.00,LWC V2.10 B1702,2013-04-04 21:04:00,
2013-04-04 17:09:00,44.0,32.6,30.17,SSW,200,4.0,10.0,64,0.00,,,0.00,LWC V2.10 B1702,2013-04-04 21:09:00,
2013-04-04 17:14:00,43.7,31.9,30.17,West,277,9.0,11.0,63,0.00,,,0.00,LWC V2.10 B1702,2013-04-04 21:14:00,
2013-04-04 17:19:00,43.3,32.0,30.17,WSW,238,7.0,7.0,64,0.00,,,0.00,LWC V2.10 B1702,2013-04-04 21:19:00,
2013-04-04 17:24:00,43.1,31.8,30.16,WSW,255,5.0,12.0,64,0.00,,,0.00,LWC V2.10 B1702,2013-04-04 21:24:00,
2013-04-04 17:29:00,42.9,32.3,30.16,WSW,246,8.0,8.0,66,0.00,,,0.00,LWC V2.10 B1702,2013-04-04 21:29:00,
2013-04-04 17:34:00,42.7,32.5,30.16,WSW,248,5.0,6.0,67,0.00,,,0.00,LWC V2.10 B1702,2013-04-04 21:34:00,
2013-04-04 17:39:00,42.7,32.1,30.16,SW,219,3.0,9.0,66,0.00,,,0.00,LWC V2.10 B1702,2013-04-04 21:39:00,
2013-04-04 17:44:00,42.5,32.7,30.17,WSW,245,6.0,8.0,68,0.00,,,0.00,LWC V2.10 B1702,2013-04-04 21:44:00,
2013-04-04 17:49:00,42.6,33.2,30.16,SSW,192,2.0,7.0,69,0.00,,,0.00,LWC V2.10 B1702,2013-04-04 21:49:00,
2013-04-04 17:54:00,42.8,33.0,30.16,SW,230,7.0,11.0,68,0.00,,,0.00,LWC V2.10 B1702,2013-04-04 21:54:00,
2013-04-04 17:59:00,42.9,32.3,30.16,WSW,240,4.0,7.0,66,0.00,,,0.00,LWC V2.10 B1702,2013-04-04 21:59:00,
2013-04-04 18:04:00,42.7,32.5,30.15,WSW,254,8.0,11.0,67,0.00,,,0.00,LWC V2.10 B1702,2013-04-04 22:04:00,
2013-04-04 18:09:00,42.4,31.9,30.16,WSW,243,6.0,8.0,66,0.00,,,0.00,LWC V2.10 B1702,2013-04-04 22:09:00,
2013-04-04 18:14:00,42.2,32.0,30.16,SW,228,4.0,8.0,67,0.00,,,0.00,LWC V2.10 B1702,2013-04-04 22:14:00,
2013-04-04 18:19:00,41.9,31.8,30.16,WSW,251,9.0,9.0,67,0.00,,,0.00,LWC V2.10 B1702,2013-04-04 22:19:00,
2013-04-04 18:24:00,41.6,31.8,30.16,WSW,251,4.0,8.0,68,0.00,,,0.00,LWC V2.10 B1702,2013-04-04 22:24:00,
2013-04-04 18:29:00,41.4,31.3,30.16,WSW,256,1.0,8.0,67,0.00,,,0.00,LWC V2.10 B1702,2013-04-04 22:29:00,
2013-04-04 18:34:00,41.2,31.1,30.16,SW,231,6.0,9.0,67,0.00,,,0.00,LWC V2.10 B1702,2013-04-04 22:34:00,
2013-04-04 18:39:00,41.0,31.6,30.16,SW,218,2.0,11.0,69,0.00,,,0.00,LWC V2.10 B1702,2013-04-04 22:39:00,
2013-04-04 18:44:00,40.8,31.8,30.16,West,269,4.0,9.0,70,0.00,,,0.00,LWC V2.10 B1702,2013-04-04 22:44:00,
2013-04-04 18:49:00,40.8,31.4,30.16,West,279,4.0,12.0,69,0.00,,,0.00,LWC V2.10 B1702,2013-04-04 22:49:00,
2013-04-04 18:54:00,40.6,31.2,30.16,WSW,258,4.0,7.0,69,0.00,,,0.00,LWC V2.10 B1702,2013-04-04 22:54:00,
2013-04-04 18:59:00,40.5,31.5,30.16,WSW,248,6.0,8.0,70,0.00,,,0.00,LWC V2.10 B1702,2013-04-04 22:59:00,
2013-04-04 19:04:00,40.4,31.4,30.16,WSW,257,5.0,7.0,70,0.00,,,0.00,LWC V2.10 B1702,2013-04-04 23:04:00,
2013-04-04 19:09:00,40.3,31.7,30.16,SW,234,14.0,14.0,71,0.00,,,0.00,LWC V2.10 B1702,2013-04-04 23:09:00,
2013-04-04 19:14:00,40.2,31.6,30.16,WNW,294,3.0,10.0,71,0.00,,,0.00,LWC V2.10 B1702,2013-04-04 23:14:00,
2013-04-04 19:19:00,40.2,31.9,30.16,WSW,257,9.0,10.0,72,0.00,,,0.00,LWC V2.10 B1702,2013-04-04 23:19:00,
2013-04-04 19:24:00,40.2,31.6,30.16,WSW,252,11.0,11.0,71,0.00,,,0.00,LWC V2.10 B1702,2013-04-04 23:24:00,
2013-04-04 19:29:00,40.3,31.7,30.16,WSW,242,3.0,6.0,71,0.00,,,0.00,LWC V2.10 B1702,2013-04-04 23:29:00,
2013-04-04 19:34:00,40.2,31.2,30.16,SW,233,5.0,8.0,70,0.00,,,0.00,LWC V2.10 B1702,2013-04-04 23:34:00,
2013-04-04 19:39:00,40.3,31.7,30.16,WSW,238,0.0,7.0,71,0.00,,,0.00,LWC V2.10 B1702,2013-04-04 23:39:00,
2013-04-04 19:44:00,40.2,31.9,30.16,SW,231,5.0,10.0,72,0.00,,,0.00,LWC V2.10 B1702,2013-04-04 23:44:00,
2013-04-04 19:49:00,40.2,31.9,30.17,West,275,4.0,9.0,72,0.00,,,0.00,LWC V2.10 B1702,2013-04-04 23:49:00,
2013-04-04 19:54:00,40.1,32.2,30.17,West,267,5.0,9.0,73,0.00,,,0.00,LWC V2.10 B1702,2013-04-04 23:54:00,
2013-04-04 19:59:00,40.1,32.5,30.17,WSW,244,4.0,7.0,74,0.00,,,0.00,LWC V2.10 B1702,2013-04-04 23:59:00,
2013-04-04 20:04:00,40.0,32.4,30.17,SW,235,7.0,9.0,74,0.00,,,0.00,LWC V2.10 B1702,2013-04-05 00:04:00,
2013-04-04 20:09:00,40.0,32.7,30.17,West,271,3.0,7.0,75,0.00,,,0.00,LWC V2.10 B1702,2013-04-05 00:09:00,
2013-04-04 20:14:00,40.0,32.7,30.17,SW,234,3.0,9.0,75,0.00,,,0.00,LWC V2.10 B1702,2013-04-05 00:14:00,
2013-04-04 20:19:00,40.0,32.7,30.17,West,263,10.0,11.0,75,0.00,,,0.00,LWC V2.10 B1702,2013-04-05 00:19:00,
2013-04-04 20:24:00,40.0,32.7,30.17,West,267,7.0,9.0,75,0.00,,,0.00,LWC V2.10 B1702,2013-04-05 00:24:00,
2013-04-04 20:29:00,40.0,33.1,30.18,WSW,255,6.0,7.0,76,0.00,,,0.00,LWC V2.10 B1702,2013-04-05 00:29:00,
2013-04-04 20:34:00,40.0,33.1,30.18,West,269,5.0,9.0,76,0.00,,,0.00,LWC V2.10 B1702,2013-04-05 00:34:00,
2013-04-04 20:39:00,39.9,33.0,30.18,WSW,244,3.0,8.0,76,0.00,,,0.00,LWC V2.10 B1702,2013-04-05 00:39:00,
2013-04-04 20:44:00,40.0,33.1,30.18,West,271,6.0,10.0,76,0.00,,,0.00,LWC V2.10 B1702,2013-04-05 00:44:00,
2013-04-04 20:49:00,40.0,33.4,30.18,SSW,200,9.0,10.0,77,0.00,,,0.00,LWC V2.10 B1702,2013-04-05 00:49:00,
2013-04-04 20:54:00,40.0,33.4,30.18,SW,236,1.0,14.0,77,0.00,,,0.00,LWC V2.10 B1702,2013-04-05 00:54:00,
2013-04-04 20:59:00,40.0,33.7,30.17,West,271,2.0,13.0,78,0.00,,,0.00,LWC V2.10 B1702,2013-04-05 00:59:00,
2013-04-04 21:04:00,39.9,33.6,30.17,WSW,256,5.0,8.0,78,0.00,,,0.00,LWC V2.10 B1702,2013-04-05 01:04:00,
2013-04-04 21:09:00,39.9,33.6,30.17,SW,232,3.0,5.0,78,0.00,,,0.00,LWC V2.10 B1702,2013-04-05 01:09:00,
2013-04-04 21:14:00,39.9,33.6,30.17,West,270,2.0,11.0,78,0.00,,,0.00,LWC V2.10 B1702,2013-04-05 01:14:00,
2013-04-04 21:19:00,40.0,33.7,30.17,WSW,254,7.0,9.0,78,0.00,,,0.00,LWC V2.10 B1702,2013-04-05 01:19:00,
2013-04-04 21:24:00,40.0,34.0,30.17,WSW,238,6.0,7.0,79,0.00,,,0.00,LWC V2.10 B1702,2013-04-05 01:24:00,
2013-04-04 21:29:00,40.0,34.0,30.17,SW,214,2.0,5.0,79,0.00,,,0.00,LWC V2.10 B1702,2013-04-05 01:29:00,
2013-04-04 21:34:00,40.0,33.7,30.17,WSW,250,0.0,13.0,78,0.00,,,0.00,LWC V2.10 B1702,2013-04-05 01:34:00,
2013-04-04 21:39:00,40.0,34.0,30.17,West,278,2.0,10.0,79,0.00,,,0.00,LWC V2.10 B1702,2013-04-05 01:39:00,
2013-04-04 21:44:00,40.1,34.1,30.17,East,82,6.0,7.0,79,0.00,,,0.00,LWC V2.10 B1702,2013-04-05 01:44:00,
2013-04-04 21:49:00,40.1,34.4,30.16,WNW,288,2.0,5.0,80,0.00,,,0.00,LWC V2.10 B1702,2013-04-05 01:49:00,
2013-04-04 21:54:00,40.1,34.4,30.16,West,281,2.0,7.0,80,0.00,,,0.00,LWC V2.10 B1702,2013-04-05 01:54:00,
2013-04-04 21:59:00,40.1,34.4,30.15,WSW,249,7.0,9.0,80,0.00,,,0.00,LWC V2.10 B1702,2013-04-05 01:59:00,
2013-04-04 22:04:00,40.1,34.4,30.15,WSW,248,1.0,5.0,80,0.00,,,0.00,LWC V2.10 B1702,2013-04-05 02:04:00,
2013-04-04 22:09:00,40.0,34.3,30.15,SSW,205,1.0,7.0,80,0.00,,,0.00,LWC V2.10 B1702,2013-04-05 02:09:00,
2013-04-04 22:14:00,40.0,34.3,30.15,WSW,243,3.0,7.0,80,0.00,,,0.00,LWC V2.10 B1702,2013-04-05 02:14:00,
2013-04-04 22:19:00,40.0,34.3,30.15,SW,234,4.0,7.0,80,0.00,,,0.00,LWC V2.10 B1702,2013-04-05 02:19:00,
2013-04-04 22:24:00,40.0,34.3,30.15,SW,229,2.0,6.0,80,0.00,,,0.00,LWC V2.10 B1702,2013-04-05 02:24:00,
2013-04-04 22:29:00,40.0,34.3,30.15,WSW,244,5.0,10.0,80,0.00,,,0.00,LWC V2.10 B1702,2013-04-05 02:29:00,
2013-04-04 22:34:00,40.1,34.4,30.14,WSW,256,5.0,13.0,80,0.00,,,0.00,LWC V2.10 B1702,2013-04-05 02:34:00,
2013-04-04 22:39:00,40.1,34.4,30.14,WSW,255,8.0,10.0,80,0.00,,,0.00,LWC V2.10 B1702,2013-04-05 02:39:00,
2013-04-04 22:44:00,40.2,34.5,30.14,WSW,241,8.0,9.0,80,0.00,,,0.00,LWC V2.10 B1702,2013-04-05 02:44:00,
2013-04-04 22:49:00,40.2,34.5,30.14,West,269,6.0,14.0,80,0.00,,,0.00,LWC V2.10 B1702,2013-04-05 02:49:00,
2013-04-04 22:54:00,40.3,34.9,30.14,West,275,2.0,10.0,81,0.00,,,0.00,LWC V2.10 B1702,2013-04-05 02:54:00,
2013-04-04 22:59:00,40.3,34.9,30.14,WNW,287,8.0,10.0,81,0.00,,,0.00,LWC V2.10 B1702,2013-04-05 02:59:00,
2013-04-04 23:04:00,40.3,34.9,30.13,West,271,6.0,9.0,81,0.00,,,0.00,LWC V2.10 B1702,2013-04-05 03:04:00,
2013-04-04 23:09:00,40.3,34.9,30.13,WSW,248,6.0,11.0,81,0.00,,,0.00,LWC V2.10 B1702,2013-04-05 03:09:00,
2013-04-04 23:14:00,40.4,35.0,30.12,SW,233,5.0,11.0,81,0.00,,,0.00,LWC V2.10 B1702,2013-04-05 03:14:00,
2013-04-04 23:19:00,40.4,35.0,30.12,WSW,254,8.0,10.0,81,0.00,,,0.00,LWC V2.10 B1702,2013-04-05 03:19:00,
2013-04-04 23:24:00,40.4,35.0,30.12,SW,223,4.0,5.0,81,0.00,,,0.00,LWC V2.10 B1702,2013-04-05 03:24:00,
2013-04-04 23:29:00,40.4,35.0,30.12,WSW,256,5.0,8.0,81,0.00,,,0.00,LWC V2.10 B1702,2013-04-05 03:29:00,
2013-04-04 23:34:00,40.4,35.0,30.11,SW,229,2.0,8.0,81,0.00,,,0.00,LWC V2.10 B1702,2013-04-05 03:34:00,
2013-04-04 23:39:00,40.4,35.0,30.11,WSW,244,2.0,5.0,81,0.00,,,0.00,LWC V2.10 B1702,2013-04-05 03:39:00,
2013-04-04 23:44:00,40.3,35.2,30.11,West,268,8.0,9.0,82,0.00,,,0.00,LWC V2.10 B1702,2013-04-05 03:44:00,
2013-04-04 23:49:00,40.4,35.3,30.11,West,281,4.0,8.0,82,0.00,,,0.00,LWC V2.10 B1702,2013-04-05 03:49:00,
2013-04-04 23:54:00,40.5,35.4,30.11,SW,229,2.0,8.0,82,0.00,,,0.00,LWC V2.10 B1702,2013-04-05 03:54:00,
2013-04-04 23:59:00,40.5,35.4,30.11,West,263,5.0,9.0,82,0.00,,,0.00,LWC V2.10 B1702,2013-04-05 03:59:00,